Terminal Aerodrome Forecast
Issued by NWS

Home | Current Version | Previous Version | Text Only | Print | Product List | Glossary On
Versions: 1 2 3 4 5 6 7 8 9 10 11 12 13 14 15 16 17 18 19
000
FTUS42 KMHX 181733
TAFPGV
TAF
KPGV 181733Z 1818/1918 21011G20KT P6SM SCT150
     FM182000 20012KT P6SM BKN040
     FM190000 21014KT P6SM SCT250
     FM190900 23012G25KT P6SM VCSH SCT025 BKN040 WS020/21045KT
     FM191400 30013G20KT P6SM SKC
      AMD LTD TO CLD VIS AND WIND=

USA.gov is the U.S. government's official web portal to all federal, state and local government web resources and services.